Tehachapi, CA

10:36 AM PST on December 08, 2019 (GMT -0800)
Tehachapi Municipal

Weather History for KTSP - October, 2019

Change the Weather History Date:

Thursday, October 31, 2019

  Actual Average Record
Temperature  
Mean Temperature 45 °F -  
Max Temperature 55 °F 62 °F 77 °F (2015)
Min Temperature 35 °F 38 °F 30 °F (2013)
Degree Days  
Heating Degree Days 20    
Moisture  
Dew Point -15 °F    
Average Humidity 8    
Maximum Humidity 11    
Minimum Humidity 5    
Precipitation  
Precipitation 0.00 in - - ()
Sea Level Pressure  
Sea Level Pressure 30.26 in    
Wind  
Wind Speed 12 mph ()    
Max Wind Speed 22 mph    
Max Gust Speed 30 mph    
Visibility 9.6 miles    
Events      
Averages and records for this station are not official NWS values.
T = Trace of Precipitation, MM = Missing Value Source: Averaged Metar Reports

Daily Weather History Graph

Daily Weather History Graph

Search for Another Location

Airport or City:

Astronomy

Oct. 31, 2019 Rise Set
Actual Time 7:13 AM PDT 6:00 PM PDT
Civil Twilight 6:47 AM PDT 6:26 PM PDT
Nautical Twilight 6:17 AM PDT 6:56 PM PDT
Astronomical Twilight 5:48 AM PDT 7:25 PM PDT
Moon 11:00 AM PDT (10/31) 9:07 PM PDT (10/31)
Length of Visible Light 11h 38m
Length of Day
10h 46m
Waxing Crescent, 16% of the Moon is Illuminated
Oct 31
Waxing Crescent
Nov 4
First Quarter
Nov 12
Full
Nov 19
Last Quarter
Nov 26
New

Hourly Weather History & Observations

Time (PDT) Temp. Windchill Dew Point Humidity Pressure Visibility Wind Dir Wind Speed Gust Speed Precip Events Conditions
12:15 AM 39.2 °F 30.8 °F -16.6 °F 9% 30.32 in 10.0 mi ESE 15.0 mph 18.4 mph N/A   Partly Cloudy
12:55 AM 37.4 °F 29.8 °F -16.6 °F 9% 30.31 in 10.0 mi East 11.5 mph 17.3 mph N/A   Scattered Clouds
1:15 AM 39.2 °F 31.2 °F -18.4 °F 8% 30.31 in 10.0 mi East 13.8 mph - N/A   Scattered Clouds
1:35 AM 37.4 °F 29.8 °F -18.4 °F 9% 30.31 in 10.0 mi East 11.5 mph - N/A   Partly Cloudy
1:55 AM 37.4 °F 31.4 °F -18.4 °F 9% 30.31 in 10.0 mi East 8.1 mph - N/A   Scattered Clouds
2:15 AM 39.2 °F 30.2 °F -16.6 °F 9% 30.30 in 10.0 mi SE 17.3 mph 23.0 mph N/A   Partly Cloudy
2:35 AM 39.2 °F 30.8 °F -16.6 °F 9% 30.30 in 10.0 mi SE 15.0 mph 21.9 mph N/A   Partly Cloudy
3:15 AM 37.4 °F 28.9 °F -16.6 °F 9% 30.30 in 10.0 mi ESE 13.8 mph 19.6 mph N/A   Partly Cloudy
3:35 AM 37.4 °F 28.9 °F -18.4 °F 9% 30.30 in 10.0 mi ESE 13.8 mph 18.4 mph N/A   Partly Cloudy
3:55 AM 37.4 °F 29.8 °F -16.6 °F 9% 30.29 in 10.0 mi East 11.5 mph - N/A   Partly Cloudy
4:15 AM 35.6 °F 27.5 °F -16.6 °F 10% 30.29 in 10.0 mi East 11.5 mph - N/A   Partly Cloudy
4:35 AM 37.4 °F 30.3 °F -16.6 °F 9% 30.29 in 10.0 mi East 10.4 mph 17.3 mph N/A   Scattered Clouds
4:55 AM 37.4 °F 30.3 °F -16.6 °F 9% 30.29 in 10.0 mi East 10.4 mph - N/A   Scattered Clouds
5:15 AM 37.4 °F 29.3 °F -16.6 °F 9% 30.29 in 10.0 mi ESE 12.7 mph - N/A   Partly Cloudy
5:35 AM 37.4 °F 29.8 °F -16.6 °F 9% 30.29 in 10.0 mi East 11.5 mph - N/A   Partly Cloudy
5:55 AM 37.4 °F 29.3 °F -16.6 °F 9% 30.29 in 10.0 mi East 12.7 mph 16.1 mph N/A   Partly Cloudy
6:15 AM 37.4 °F 29.3 °F -16.6 °F 9% 30.29 in 10.0 mi East 12.7 mph 19.6 mph N/A   Partly Cloudy
6:35 AM 37.4 °F 30.8 °F -16.6 °F 9% 30.29 in 10.0 mi East 9.2 mph 18.4 mph N/A   Partly Cloudy
6:55 AM 37.4 °F 31.4 °F -16.6 °F 9% 30.29 in 10.0 mi ESE 8.1 mph 17.3 mph N/A   Partly Cloudy
7:15 AM 35.6 °F 27.5 °F -16.6 °F 10% 30.30 in 10.0 mi East 11.5 mph - N/A   Partly Cloudy
7:35 AM 37.4 °F 28.2 °F -16.6 °F 9% 30.29 in 10.0 mi East 16.1 mph 21.9 mph N/A   Clear
7:55 AM 39.2 °F 29.3 °F -16.6 °F 9% 30.29 in 10.0 mi East 20.7 mph 24.2 mph N/A   Clear
8:15 AM 39.2 °F 32.5 °F -16.6 °F 9% 30.30 in 10.0 mi ESE 10.4 mph 16.1 mph N/A   Clear
8:35 AM 42.8 °F 34.8 °F -14.8 °F 8% 30.31 in 10.0 mi ESE 17.3 mph 21.9 mph N/A   Clear
8:55 AM 44.6 °F 36.9 °F -14.8 °F 8% 30.31 in 10.0 mi SE 18.4 mph 25.3 mph N/A   Clear
9:15 AM 46.4 °F 39.5 °F -13.0 °F 8% 30.31 in 10.0 mi SE 17.3 mph 25.3 mph N/A   Clear
9:35 AM 46.4 °F 39.0 °F -13.0 °F 8% 30.31 in 10.0 mi SE 19.6 mph 24.2 mph N/A   Clear
9:55 AM 48.2 °F - -13.0 °F 7% 30.31 in 9.0 mi SE 21.9 mph 28.8 mph N/A   Clear
10:15 AM 48.2 °F - -13.0 °F 7% 30.30 in 10.0 mi SE 18.4 mph 26.5 mph N/A   Clear
10:55 AM 50.0 °F - -13.0 °F 7% 30.30 in 9.0 mi SE 19.6 mph 26.5 mph N/A   Clear
11:15 AM 50.0 °F - -13.0 °F 7% 30.29 in 8.0 mi SE 19.6 mph 25.3 mph N/A   Clear
11:35 AM 51.8 °F - -13.0 °F 7% 30.29 in 10.0 mi SE 20.7 mph 29.9 mph N/A   Clear
11:55 AM 53.6 °F - -13.0 °F 6% 30.28 in 8.0 mi SE 19.6 mph 28.8 mph N/A   Clear
12:15 PM 53.6 °F - -13.0 °F 6% 30.27 in 8.0 mi ESE 18.4 mph 28.8 mph N/A   Clear
12:35 PM 53.6 °F - -13.0 °F 6% 30.26 in 7.0 mi SE 19.6 mph 26.5 mph N/A   Clear
12:55 PM 53.6 °F - -13.0 °F 6% 30.25 in 10.0 mi SE 19.6 mph 25.3 mph N/A   Clear
1:15 PM 55.4 °F - -11.2 °F 6% 30.25 in 7.0 mi SE 20.7 mph 27.6 mph N/A   Clear
1:35 PM 55.4 °F - -13.0 °F 6% 30.24 in 8.0 mi SE 16.1 mph 24.2 mph N/A   Clear
1:55 PM 55.4 °F - -13.0 °F 6% 30.23 in 7.0 mi SE 16.1 mph 21.9 mph N/A   Clear
2:15 PM 55.4 °F - -13.0 °F 6% 30.23 in 8.0 mi SE 17.3 mph 23.0 mph N/A   Clear
2:55 PM 55.4 °F - -14.8 °F 5% 30.22 in 7.0 mi SE 15.0 mph 21.9 mph N/A   Clear
3:15 PM 55.4 °F - -13.0 °F 6% 30.22 in 8.0 mi SE 11.5 mph 20.7 mph N/A   Clear
3:35 PM 55.4 °F - -13.0 °F 6% 30.22 in 9.0 mi ESE 15.0 mph 18.4 mph N/A   Clear
3:55 PM 55.4 °F - -14.8 °F 5% 30.22 in 10.0 mi ESE 9.2 mph 19.6 mph N/A   Clear
4:15 PM 55.4 °F - -14.8 °F 5% 30.22 in 10.0 mi SE 12.7 mph 18.4 mph N/A   Clear
4:35 PM 55.4 °F - -14.8 °F 5% 30.21 in 9.0 mi ESE 10.4 mph - N/A   Clear
4:55 PM 53.6 °F - -14.8 °F 6% 30.21 in 10.0 mi ESE 10.4 mph - N/A   Clear
5:15 PM 53.6 °F - -14.8 °F 6% 30.21 in 10.0 mi ESE 8.1 mph - N/A   Clear
5:35 PM 51.8 °F - -14.8 °F 6% 30.21 in 9.0 mi ESE 8.1 mph - N/A   Clear
5:55 PM 48.2 °F - -14.8 °F 7% 30.21 in 10.0 mi East 6.9 mph - N/A   Clear
6:15 PM 46.4 °F 42.9 °F -14.8 °F 7% 30.21 in 10.0 mi ESE 6.9 mph - N/A   Clear
6:35 PM 41.0 °F 34.7 °F -14.8 °F 9% 30.21 in 10.0 mi East 10.4 mph - N/A   Clear
7:15 PM 44.6 °F 39.7 °F -14.8 °F 8% 30.21 in 10.0 mi ESE 9.2 mph - N/A   Clear
7:35 PM 42.8 °F 37.0 °F -13.0 °F 9% 30.22 in 10.0 mi East 10.4 mph - N/A   Partly Cloudy
7:55 PM 44.6 °F 39.2 °F -14.8 °F 8% 30.22 in 10.0 mi East 10.4 mph - N/A   Scattered Clouds
8:15 PM 41.0 °F 35.2 °F -16.6 °F 8% 30.22 in 10.0 mi East 9.2 mph - N/A   Scattered Clouds
8:35 PM 41.0 °F 35.2 °F -16.6 °F 8% 30.22 in 10.0 mi East 9.2 mph - N/A   Scattered Clouds
8:55 PM 41.0 °F 34.7 °F -16.6 °F 8% 30.22 in 10.0 mi East 10.4 mph - N/A   Partly Cloudy
9:15 PM 39.2 °F 32.0 °F -14.8 °F 10% 30.22 in 10.0 mi East 11.5 mph - N/A   Scattered Clouds
9:35 PM 44.6 °F 39.2 °F -16.6 °F 7% 30.23 in 10.0 mi East 10.4 mph - N/A   Scattered Clouds
9:55 PM 42.8 °F 37.0 °F -16.6 °F 8% 30.23 in 10.0 mi East 10.4 mph - N/A   Scattered Clouds
10:15 PM 44.6 °F 40.2 °F -16.6 °F 7% 30.23 in 10.0 mi East 8.1 mph - N/A   Mostly Cloudy
10:35 PM 42.8 °F 37.0 °F -18.4 °F 7% 30.23 in 10.0 mi East 10.4 mph - N/A   Partly Cloudy
10:55 PM 35.6 °F 28.6 °F -14.8 °F 11% 30.24 in 10.0 mi East 9.2 mph - N/A   Partly Cloudy
11:15 PM 37.4 °F 30.3 °F -18.4 °F 9% 30.24 in 10.0 mi East 10.4 mph - N/A   Scattered Clouds
11:35 PM 35.6 °F 28.6 °F -16.6 °F 10% 30.23 in 10.0 mi East 9.2 mph - N/A   Scattered Clouds
11:55 PM 37.4 °F 30.8 °F -16.6 °F 9% 30.23 in 10.0 mi East 9.2 mph - N/A   Scattered Clouds